Time;durP1;ratioP1;P1;durP2;ratioP2;P2;SDS_P1;SDS_P2;PMS_P1;PMS_P2;Temp;Humidity;BMP_temperature;BMP_pressure;BME280_temperature;BME280_humidity;BME280_pressure;Samples;Min_cycle;Max_cycle;Signal;HPM_P1;HPM_P2
2022/03/27 00:00:48;;;;;;;23.33;14.02;;;;;;;10.44;36.92;99641.66;5096374;28;20063;-95
2022/03/27 00:03:14;;;;;;;21.98;11.93;;;;;;;10.72;35.82;99657.25;5096381;28;20040;-95
2022/03/27 00:05:40;;;;;;;19.10;12.95;;;;;;;10.65;36.31;99636.06;5095462;28;20098;-94
2022/03/27 00:08:06;;;;;;;21.58;11.90;;;;;;;10.75;35.58;99634.13;5095049;28;20044;-95
2022/03/27 00:11:23;;;;;;;22.17;12.57;;;;;;;10.79;35.71;99627.88;5095107;28;20417;-95
2022/03/27 00:13:18;;;;;;;22.65;12.18;;;;;;;10.80;35.64;99628.75;5094186;28;20044;-94
2022/03/27 00:15:44;;;;;;;18.58;11.07;;;;;;;10.76;37.68;99649.22;5095199;28;20051;-95
2022/03/27 00:18:11;;;;;;;22.40;11.57;;;;;;;10.62;38.02;99641.41;5095233;28;20106;-95
2022/03/27 00:20:37;;;;;;;21.40;11.95;;;;;;;10.42;38.65;99638.13;5095709;28;20044;-95
2022/03/27 00:23:03;;;;;;;17.40;11.10;;;;;;;10.25;38.38;99632.97;5095359;28;20041;-95
2022/03/27 00:25:29;;;;;;;18.67;10.70;;;;;;;10.21;38.24;99621.53;5095717;28;20486;-95
2022/03/27 00:27:54;;;;;;;21.83;10.80;;;;;;;10.23;37.52;99616.16;5095381;28;20037;-95
2022/03/27 00:30:20;;;;;;;18.30;11.02;;;;;;;10.24;38.03;99616.16;5095438;28;20040;-95
2022/03/27 00:32:46;;;;;;;21.50;10.95;;;;;;;10.24;38.04;99609.97;5095145;28;20066;-96
2022/03/27 00:35:15;;;;;;;21.63;12.68;;;;;;;10.29;39.10;99618.78;5094737;28;20048;-94
2022/03/27 00:37:40;;;;;;;24.27;13.82;;;;;;;10.33;40.60;99627.63;5094505;28;20051;-94
2022/03/27 00:40:09;;;;;;;24.45;13.32;;;;;;;10.23;41.49;99630.31;5094448;28;20048;-94
2022/03/27 00:42:35;;;;;;;23.77;13.73;;;;;;;10.15;42.21;99626.91;5094732;28;20498;-94
2022/03/27 00:45:01;;;;;;;25.35;13.70;;;;;;;10.05;42.16;99609.31;5094895;28;20056;-94
2022/03/27 00:47:28;;;;;;;22.75;13.63;;;;;;;10.11;42.92;99648.22;5094429;28;20044;-95
2022/03/27 00:49:53;;;;;;;21.60;12.27;;;;;;;9.94;43.69;99622.69;5094636;28;20458;-94
2022/03/27 00:52:21;;;;;;;18.83;10.85;;;;;;;9.91;42.36;99628.06;5094573;28;20055;-94
2022/03/27 00:54:47;;;;;;;19.10;10.55;;;;;;;9.91;40.08;99628.06;5095203;28;20040;-95
2022/03/27 00:57:13;;;;;;;16.83;10.00;;;;;;;9.81;40.45;99594.50;5094908;28;20048;-94
2022/03/27 00:59:38;;;;;;;17.38;10.30;;;;;;;9.91;42.19;99620.09;5094777;28;20075;-95
2022/03/27 01:02:04;;;;;;;22.02;12.40;;;;;;;9.78;43.54;99605.16;5094546;28;20135;-96
2022/03/27 01:04:30;;;;;;;22.48;13.63;;;;;;;9.84;44.12;99619.25;5095315;28;20493;-96
2022/03/27 01:06:57;;;;;;;23.15;13.15;;;;;;;9.70;44.93;99610.56;5098447;28;20413;-95
2022/03/27 01:12:36;;;;;;;23.85;13.68;;;;;;;9.44;45.78;99598.41;5093521;27;20374;-96
2022/03/27 01:15:02;;;;;;;23.30;12.87;;;;;;;9.35;46.12;99597.63;5092844;28;20048;-95
2022/03/27 01:17:29;;;;;;;25.15;13.30;;;;;;;9.21;46.30;99601.25;5092754;28;20040;-96
2022/03/27 01:19:56;;;;;;;24.52;13.57;;;;;;;9.22;46.68;99610.13;5093087;28;20044;-96
2022/03/27 01:22:24;;;;;;;22.17;11.38;;;;;;;9.10;42.93;99602.25;5094494;28;20045;-96
2022/03/27 01:24:51;;;;;;;16.10;9.68;;;;;;;9.25;40.73;99588.84;5093684;28;20048;-96
2022/03/27 01:27:18;;;;;;;19.13;9.20;;;;;;;9.40;39.53;99571.91;5093628;28;20473;-95
2022/03/27 01:29:44;;;;;;;17.08;8.80;;;;;;;9.76;38.05;99591.00;5093346;28;20541;-96
2022/03/27 01:32:13;;;;;;;17.70;8.98;;;;;;;9.90;34.71;99570.50;5093224;28;20514;-95
2022/03/27 01:34:39;;;;;;;;;;;;;;;10.18;38.33;99608.25;5092153;28;20117;-95
2022/03/27 01:37:07;;;;;;;17.20;9.82;;;;;;;9.95;39.19;99573.97;5092345;28;19912;-95
2022/03/27 01:39:35;;;;;;;13.38;8.15;;;;;;;10.00;35.23;99581.91;5092083;28;20383;-96
2022/03/27 01:42:01;;;;;;;14.85;8.35;;;;;;;10.43;30.69;99576.06;5099078;28;20041;-95
2022/03/27 01:44:26;;;;;;;14.82;8.23;;;;;;;11.14;29.12;99567.91;5096450;28;20051;-96
2022/03/27 01:46:53;;;;;;;17.23;9.30;;;;;;;11.08;30.83;99563.56;5093523;28;20044;-96
2022/03/27 01:49:20;;;;;;;13.27;8.35;;;;;;;11.25;30.94;99557.94;5093332;28;20048;-96
2022/03/27 01:51:46;;;;;;;14.15;8.15;;;;;;;11.07;33.09;99568.91;5091826;28;20044;-96
2022/03/27 01:54:13;;;;;;;15.40;8.52;;;;;;;10.72;35.23;99567.69;5091944;28;20048;-96
2022/03/27 01:56:41;;;;;;;23.65;12.30;;;;;;;10.31;40.88;99566.47;5092726;28;20044;-95
2022/03/27 01:59:09;;;;;;;19.60;12.65;;;;;;;10.03;42.32;99568.56;5091962;28;20036;-95
2022/03/27 02:01:35;;;;;;;23.30;11.00;;;;;;;9.76;42.65;99570.66;5091892;28;20036;-95
2022/03/27 02:04:01;;;;;;;14.77;8.07;;;;;;;9.64;36.97;99574.31;5091842;28;20083;-96
2022/03/27 02:06:27;;;;;;;14.85;8.55;;;;;;;10.01;33.15;99554.44;5093515;28;20079;-95
2022/03/27 02:08:53;;;;;;;13.45;8.50;;;;;;;10.11;34.63;99572.03;5091934;28;20040;-95
2022/03/27 02:11:19;;;;;;;19.75;11.45;;;;;;;9.94;42.31;99606.75;5092517;28;20121;-96
2022/03/27 02:13:47;;;;;;;19.20;11.02;;;;;;;9.57;43.15;99577.06;5092034;28;20051;-95
2022/03/27 02:16:13;;;;;;;20.88;11.70;;;;;;;9.23;43.98;99580.88;5092395;28;20044;-95
2022/03/27 02:18:41;;;;;;;21.77;12.00;;;;;;;8.83;45.15;99594.47;5092226;28;20044;-95
2022/03/27 02:21:07;;;;;;;19.02;11.35;;;;;;;8.48;46.16;99577.88;5092386;28;20048;-95
2022/03/27 02:23:33;;;;;;;20.40;12.45;;;;;;;8.40;46.42;99573.53;5079306;28;20041;-96
2022/03/27 02:25:59;;;;;;;18.65;11.40;;;;;;;8.42;46.63;99582.34;5078192;28;20502;-96
2022/03/27 02:28:25;;;;;;;20.23;11.63;;;;;;;8.27;47.40;99571.81;5079187;28;20053;-95
2022/03/27 02:30:53;;;;;;;20.23;11.90;;;;;;;8.12;46.11;99569.22;5079176;28;20117;-95
2022/03/27 02:33:19;;;;;;;20.15;10.88;;;;;;;8.07;47.71;99563.03;5077844;28;20053;-95
2022/03/27 02:35:45;;;;;;;19.08;10.68;;;;;;;7.99;46.56;99565.75;5077700;28;20048;-95
2022/03/27 02:38:12;;;;;;;16.58;10.00;;;;;;;8.00;47.10;99568.41;5077470;28;20048;-96
2022/03/27 02:40:39;;;;;;;20.38;10.38;;;;;;;8.02;47.69;99576.31;5077653;28;20124;-96
2022/03/27 02:43:05;;;;;;;19.60;11.20;;;;;;;7.94;48.42;99565.75;5077818;28;20048;-95
2022/03/27 02:45:32;;;;;;;21.00;12.75;;;;;;;7.96;48.01;99568.41;5077667;28;20052;-95
2022/03/27 02:47:59;;;;;;;23.88;12.93;;;;;;;7.95;48.38;99567.50;5077655;28;20559;-95
2022/03/27 02:50:29;;;;;;;19.67;11.27;;;;;;;7.99;48.42;99571.03;5079132;28;20059;-94
2022/03/27 02:52:55;;;;;;;20.77;11.98;;;;;;;8.11;48.07;99586.91;5079316;28;20157;-96
2022/03/27 02:55:22;;;;;;;19.05;11.88;;;;;;;8.02;48.48;99571.91;5077987;28;20044;-95
2022/03/27 02:57:49;;;;;;;23.20;12.40;;;;;;;8.00;48.06;99576.34;5078525;28;20048;-96
2022/03/27 03:00:16;;;;;;;23.42;11.50;;;;;;;7.96;48.52;99566.63;5078293;28;20048;-95
2022/03/27 03:02:43;;;;;;;20.83;12.02;;;;;;;8.11;48.61;99599.22;5078000;28;20044;-96
2022/03/27 03:05:11;;;;;;;20.75;11.95;;;;;;;7.84;49.45;99587.84;5077893;28;20072;-95
2022/03/27 03:07:41;;;;;;;23.35;12.15;;;;;;;7.61;49.44;99570.28;5077592;28;20442;-96
2022/03/27 03:10:08;;;;;;;20.65;11.93;;;;;;;7.66;49.03;99588.78;5077556;28;20057;-95
2022/03/27 03:12:34;;;;;;;25.42;12.90;;;;;;;7.55;49.32;99585.28;5078124;28;20083;-95
2022/03/27 03:15:00;;;;;;;22.27;11.85;;;;;;;7.46;49.88;99565.00;5077727;28;20090;-95
2022/03/27 03:17:26;;;;;;;22.00;11.80;;;;;;;7.32;51.07;99574.72;5077072;28;20140;-95
2022/03/27 03:19:52;;;;;;;19.65;12.10;;;;;;;7.19;50.66;99566.78;5077100;28;20482;-95
2022/03/27 03:22:20;;;;;;;23.25;12.32;;;;;;;7.26;51.00;99580.00;5077218;28;20100;-95
2022/03/27 03:24:47;;;;;;;21.42;12.52;;;;;;;7.15;51.50;99564.16;5076908;28;20076;-96
2022/03/27 03:27:13;;;;;;;21.17;12.02;;;;;;;7.13;51.97;99577.38;5077473;28;20045;-95
2022/03/27 03:29:39;;;;;;;18.05;11.93;;;;;;;7.04;51.65;99572.09;5077122;28;20379;-95
2022/03/27 03:32:06;;;;;;;23.65;12.60;;;;;;;7.05;52.51;99583.53;5077072;28;20039;-95
2022/03/27 03:34:32;;;;;;;20.17;11.35;;;;;;;6.99;52.57;99580.03;5075682;28;20050;-96
2022/03/27 03:36:57;;;;;;;21.10;11.18;;;;;;;7.11;53.01;99602.97;5077300;28;20052;-96
2022/03/27 03:39:25;;;;;;;20.98;12.20;;;;;;;7.01;53.28;99585.31;5076804;28;20056;-96
2022/03/27 03:41:51;;;;;;;21.48;11.50;;;;;;;7.00;53.01;99591.47;5077663;28;20037;-95
2022/03/27 03:44:17;;;;;;;22.33;11.63;;;;;;;7.01;53.00;99600.31;5076580;28;20113;-96
2022/03/27 03:46:46;;;;;;;18.73;10.43;;;;;;;7.27;42.02;99571.22;5078519;28;20051;-95
2022/03/27 03:49:12;;;;;;;20.33;10.57;;;;;;;7.41;48.43;99574.72;5076760;28;20056;-95
2022/03/27 03:51:38;;;;;;;19.20;10.30;;;;;;;7.40;49.52;99580.91;5076297;28;20108;-95
2022/03/27 03:54:07;;;;;;;18.27;10.52;;;;;;;7.32;50.07;99577.38;5076687;28;20071;-95
2022/03/27 03:56:34;;;;;;;20.27;12.27;;;;;;;7.24;51.48;99585.28;5076920;28;20447;-94
2022/03/27 03:59:00;;;;;;;17.95;11.10;;;;;;;7.24;49.27;99577.34;5076749;28;20413;-96
2022/03/27 04:01:26;;;;;;;18.17;10.00;;;;;;;7.30;48.39;99568.56;5076685;28;20207;-96
2022/03/27 04:03:52;;;;;;;17.63;9.23;;;;;;;7.55;44.99;99574.69;5078082;28;20048;-96
2022/03/27 04:06:18;;;;;;;16.63;10.15;;;;;;;7.73;43.64;99568.47;5078351;28;20051;-94
2022/03/27 04:08:44;;;;;;;16.85;9.07;;;;;;;8.13;36.33;99570.97;5078131;28;20071;-95
2022/03/27 04:11:16;;;;;;;19.40;9.10;;;;;;;8.43;36.76;99562.03;5079322;28;20056;-96
2022/03/27 04:14:10;;;;;;;16.08;9.18;;;;;;;9.62;31.33;99554.84;5079338;28;20047;-93
2022/03/27 04:16:37;;;;;;;16.17;8.52;;;;;;;10.81;28.04;99548.91;5081733;28;20041;-93
2022/03/27 04:19:03;;;;;;;14.07;8.43;;;;;;;10.74;29.51;99549.91;5078113;28;20055;-96
2022/03/27 04:21:29;;;;;;;17.85;11.52;;;;;;;10.10;40.90;99570.25;5076732;28;20127;-95
2022/03/27 04:23:55;;;;;;;20.73;12.10;;;;;;;9.46;44.29;99593.09;5075963;28;20113;-96
2022/03/27 04:26:21;;;;;;;18.15;10.90;;;;;;;8.79;45.85;99571.50;5075627;28;20079;-95
2022/03/27 04:28:48;;;;;;;20.65;11.63;;;;;;;8.27;48.08;99581.53;5075651;28;20050;-94
2022/03/27 04:31:15;;;;;;;21.73;11.57;;;;;;;7.93;49.07;99584.28;5075368;28;20045;-95
2022/03/27 04:33:40;;;;;;;19.25;11.93;;;;;;;7.67;49.95;99584.38;5075677;28;20048;-95
2022/03/27 04:36:08;;;;;;;25.92;12.18;;;;;;;7.57;50.89;99594.09;5075268;28;20058;-95
2022/03/27 04:38:34;;;;;;;19.92;11.52;;;;;;;7.39;51.60;99593.25;5075345;28;20048;-95
2022/03/27 04:41:00;;;;;;;20.38;11.50;;;;;;;7.33;51.96;99585.31;5075518;28;20044;-95
2022/03/27 04:43:27;;;;;;;20.13;11.45;;;;;;;7.08;53.03;99581.78;5075325;28;20048;-95
2022/03/27 04:45:54;;;;;;;24.17;12.43;;;;;;;7.04;53.46;99602.94;5074999;28;20139;-95
2022/03/27 04:48:20;;;;;;;22.63;12.20;;;;;;;6.95;51.62;99575.59;5075574;28;20147;-95
2022/03/27 04:50:46;;;;;;;20.60;12.10;;;;;;;6.98;52.68;99582.66;5075193;28;20211;-94
2022/03/27 04:53:12;;;;;;;19.65;10.63;;;;;;;7.38;48.88;99590.59;5075803;28;20060;-95
2022/03/27 04:55:39;;;;;;;15.45;8.98;;;;;;;7.31;46.01;99565.03;5075870;28;20123;-95
2022/03/27 04:58:08;;;;;;;16.33;9.85;;;;;;;7.92;39.11;99572.81;5078484;28;20048;-95
2022/03/27 05:00:35;;;;;;;16.30;8.85;;;;;;;8.71;35.08;99578.63;5077750;28;20045;-96
2022/03/27 05:03:02;;;;;;;14.45;8.10;;;;;;;9.32;33.79;99561.34;5079091;28;20102;-93
2022/03/27 05:05:29;;;;;;;18.90;9.65;;;;;;;10.30;29.58;99578.03;5080170;28;20534;-96
2022/03/27 05:07:54;;;;;;;12.65;8.25;;;;;;;10.72;28.35;99557.03;5081981;28;20062;-96
2022/03/27 05:10:20;;;;;;;16.77;9.00;;;;;;;11.20;27.51;99558.94;5079840;28;20045;-95
2022/03/27 05:12:47;;;;;;;13.52;8.88;;;;;;;11.55;25.94;99555.66;5079734;28;20522;-94
2022/03/27 05:15:13;;;;;;;15.48;8.73;;;;;;;11.75;25.86;99560.59;5080123;28;20070;-96
2022/03/27 05:17:49;;;;;;;12.32;8.60;;;;;;;11.90;25.57;99564.78;5082456;28;20048;-95
2022/03/27 05:20:17;;;;;;;14.95;9.00;;;;;;;11.89;25.92;99561.25;5071952;28;20040;-93
2022/03/27 05:22:44;;;;;;;16.67;8.75;;;;;;;12.03;25.30;99574.28;5081804;28;20450;-92
2022/03/27 05:25:11;;;;;;;14.63;8.50;;;;;;;12.09;24.98;99578.63;5074908;28;20040;-93
2022/03/27 05:27:50;;;;;;;14.68;9.23;;;;;;;12.06;24.67;99558.25;5081469;28;20568;-94
2022/03/27 05:30:17;;;;;;;15.23;8.40;;;;;;;12.08;24.71;99556.44;5079060;28;20048;-96
2022/03/27 05:32:46;;;;;;;15.82;8.52;;;;;;;12.30;24.31;99566.66;5078870;28;20134;-93
2022/03/27 05:35:12;;;;;;;14.20;8.63;;;;;;;12.30;24.44;99572.00;5078911;28;20044;-92
2022/03/27 05:37:40;;;;;;;13.52;8.38;;;;;;;12.29;24.67;99570.22;5078203;28;20111;-95
2022/03/27 05:40:09;;;;;;;12.82;8.57;;;;;;;12.35;24.00;99554.09;5076692;28;20040;-93
2022/03/27 05:42:35;;;;;;;14.45;8.50;;;;;;;12.50;24.45;99580.41;5077486;28;20040;-95
2022/03/27 05:45:24;;;;;;;13.63;8.23;;;;;;;12.42;24.48;99574.38;5084025;28;20514;-95
2022/03/27 05:47:50;;;;;;;12.27;8.32;;;;;;;12.47;24.16;99561.84;5078582;28;20045;-96
2022/03/27 05:50:18;;;;;;;12.23;7.97;;;;;;;12.46;24.22;99567.19;5081924;28;20131;-93
2022/03/27 05:52:46;;;;;;;12.00;7.70;;;;;;;12.47;24.06;99553.84;5082044;28;20045;-95
2022/03/27 05:55:13;;;;;;;13.52;8.88;;;;;;;12.77;23.77;99594.06;5080398;28;20040;-93
2022/03/27 05:57:39;;;;;;;13.75;7.88;;;;;;;12.77;23.69;99561.16;5081083;28;20049;-94
2022/03/27 06:00:08;;;;;;;13.02;8.40;;;;;;;12.78;23.74;99563.78;5084551;28;20048;-95
2022/03/27 06:02:35;;;;;;;12.98;8.00;;;;;;;12.98;23.70;99586.47;5067057;28;20040;-95
2022/03/27 06:05:01;;;;;;;12.93;7.80;;;;;;;12.93;23.56;99581.25;5081026;28;20040;-95
2022/03/27 06:07:27;;;;;;;13.38;8.23;;;;;;;12.99;23.51;99577.53;5084866;28;20044;-93
2022/03/27 06:09:57;;;;;;;12.32;8.10;;;;;;;12.97;23.36;99558.91;5084540;28;20460;-96
2022/03/27 06:12:24;;;;;;;13.88;7.70;;;;;;;13.03;23.73;99576.56;5043584;28;20041;-96
2022/03/27 06:14:56;;;;;;;16.27;8.40;;;;;;;12.95;23.41;99566.06;5046856;28;20085;-96
2022/03/27 06:17:21;;;;;;;14.18;7.80;;;;;;;13.02;23.42;99567.66;5044828;28;20076;-95
2022/03/27 06:19:47;;;;;;;13.07;8.80;;;;;;;13.03;23.02;99564.06;5044079;28;20045;-95
2022/03/27 06:22:44;;;;;;;13.95;8.20;;;;;;;13.19;23.22;99577.06;5041733;28;20068;-95
2022/03/27 06:25:17;;;;;;;12.57;7.88;;;;;;;13.23;23.04;99563.59;5043923;28;20072;-96
2022/03/27 06:27:44;;;;;;;12.77;8.05;;;;;;;13.18;23.08;99572.63;5043902;28;20118;-94
2022/03/27 06:30:12;;;;;;;12.93;7.47;;;;;;;13.41;22.89;99589.00;5041058;28;20045;-93
2022/03/27 06:32:38;;;;;;;11.03;7.23;;;;;;;13.31;23.27;99576.78;5042809;28;20042;-95
2022/03/27 06:35:05;;;;;;;12.98;7.93;;;;;;;13.21;23.17;99569.91;5043375;28;20282;-96
2022/03/27 06:37:32;;;;;;;14.07;8.30;;;;;;;13.25;23.77;99568.88;5039743;28;20037;-95
2022/03/27 06:39:58;;;;;;;13.15;7.68;;;;;;;13.25;23.23;99563.53;5039862;28;20042;-94
2022/03/27 06:42:27;;;;;;;13.93;8.45;;;;;;;13.26;23.21;99581.34;5041691;28;20044;-94
2022/03/27 06:44:55;;;;;;;13.25;7.80;;;;;;;13.34;23.55;99569.56;5041556;28;20041;-94
2022/03/27 06:47:23;;;;;;;13.18;8.20;;;;;;;13.40;23.76;99575.66;5043460;28;20044;-95
2022/03/27 06:49:50;;;;;;;10.18;7.07;;;;;;;13.55;23.74;99583.28;5041582;28;20403;-96
2022/03/27 06:52:17;;;;;;;12.32;7.53;;;;;;;13.54;23.90;99566.38;5047682;28;20045;-95
2022/03/27 06:54:44;;;;;;;11.98;7.55;;;;;;;13.59;24.07;99574.28;5039735;28;20057;-95
2022/03/27 06:57:12;;;;;;;11.93;7.75;;;;;;;13.55;23.00;99573.50;5044169;28;20049;-95
2022/03/27 07:05:45;;;;;;;12.02;7.57;;;;;;;13.94;23.35;99585.81;5122521;27;20387;-96
2022/03/27 07:08:13;;;;;;;12.50;7.57;;;;;;;13.95;23.85;99579.56;5120407;28;20040;-95
2022/03/27 07:10:41;;;;;;;11.13;7.57;;;;;;;14.17;23.96;99604.75;5118897;28;20101;-96
2022/03/27 07:13:08;;;;;;;11.68;7.38;;;;;;;14.17;24.07;99583.38;5119847;28;20127;-94
2022/03/27 07:15:35;;;;;;;11.98;7.10;;;;;;;14.26;23.30;99589.38;5114141;28;20047;-96
2022/03/27 07:18:01;;;;;;;11.18;7.38;;;;;;;14.26;23.89;99595.59;5114907;28;20046;-96
2022/03/27 07:20:30;;;;;;;13.77;7.72;;;;;;;14.15;23.70;99589.69;5118422;28;20416;-96
2022/03/27 07:23:00;;;;;;;15.57;8.98;;;;;;;14.18;25.34;99593.16;5118820;28;20378;-96
2022/03/27 07:25:27;;;;;;;11.82;7.40;;;;;;;14.29;24.69;99605.31;5117478;28;20040;-96
2022/03/27 07:27:54;;;;;;;13.30;8.90;;;;;;;14.20;26.67;99582.38;5117631;28;20051;-94
2022/03/27 07:30:20;;;;;;;11.13;7.95;;;;;;;14.24;24.00;99586.75;5119036;28;20044;-95
2022/03/27 07:32:47;;;;;;;12.48;8.15;;;;;;;14.35;24.41;99597.13;5117727;28;20048;-96
2022/03/27 07:35:14;;;;;;;12.30;7.65;;;;;;;14.50;23.40;99604.69;5116656;28;20036;-93
2022/03/27 07:37:41;;;;;;;12.18;7.85;;;;;;;14.52;23.58;99596.63;5117174;28;20044;-94
2022/03/27 07:40:10;;;;;;;11.25;7.70;;;;;;;14.70;23.42;99613.97;5112471;28;20054;-93
2022/03/27 07:42:37;;;;;;;14.50;7.47;;;;;;;14.85;22.78;99613.50;5112213;28;20050;-94
2022/03/27 07:45:05;;;;;;;22.65;14.23;;;;;;;14.66;30.92;99598.91;5113493;28;20493;-95
2022/03/27 07:47:32;;;;;;;25.48;14.63;;;;;;;14.46;33.73;99599.50;5113527;28;20127;-95
2022/03/27 07:56:37;;;;;;;13.85;7.90;;;;;;;14.60;25.25;99609.84;5032580;28;20052;-94
2022/03/27 07:59:07;;;;;;;12.98;8.38;;;;;;;14.83;24.21;99585.88;5032890;28;20038;-94
2022/03/27 08:01:34;;;;;;;12.68;7.63;;;;;;;15.14;23.71;99609.03;5030237;28;20487;-94
2022/03/27 08:04:00;;;;;;;14.30;7.88;;;;;;;15.21;23.66;99589.16;5030022;28;20050;-94
2022/03/27 08:06:26;;;;;;;11.88;8.00;;;;;;;15.45;23.40;99595.50;5029367;28;20496;-94
2022/03/27 08:08:52;;;;;;;14.18;8.85;;;;;;;15.56;23.46;99592.44;5030164;28;20122;-95
2022/03/27 08:11:18;;;;;;;13.93;8.10;;;;;;;15.52;23.90;99575.59;5030849;28;20081;-94
2022/03/27 08:13:45;;;;;;;16.38;8.35;;;;;;;15.56;24.66;99577.22;5032811;28;20381;-95
2022/03/27 08:16:11;;;;;;;17.27;10.75;;;;;;;15.86;27.21;99600.41;5020610;28;20046;-96
2022/03/27 08:18:37;;;;;;;17.60;10.13;;;;;;;15.85;26.46;99591.44;5017691;28;20068;-95
2022/03/27 08:21:03;;;;;;;15.02;8.50;;;;;;;15.96;24.27;99578.56;5016758;28;20041;-96
2022/03/27 08:23:29;;;;;;;15.05;8.70;;;;;;;16.34;24.75;99611.13;5016616;28;20055;-96
2022/03/27 08:28:55;;;;;;;13.50;8.60;;;;;;;16.54;23.87;99582.66;5149295;27;20372;-95
2022/03/27 08:31:20;;;;;;;14.75;8.82;;;;;;;16.61;23.56;99606.56;5133172;28;20046;-94
2022/03/27 08:33:48;;;;;;;14.40;8.77;;;;;;;16.75;22.58;99600.63;5133190;28;20039;-95
2022/03/27 08:36:14;;;;;;;15.55;9.65;;;;;;;16.84;24.43;99600.28;5133066;28;20520;-94
2022/03/27 08:38:39;;;;;;;15.35;9.15;;;;;;;16.65;23.67;99577.75;5133248;28;20043;-95
2022/03/27 08:41:05;;;;;;;16.75;11.63;;;;;;;16.77;24.47;99584.47;5134852;28;20054;-96
2022/03/27 08:43:33;;;;;;;14.80;8.75;;;;;;;16.77;22.90;99589.84;5134625;28;20130;-95
2022/03/27 08:46:01;;;;;;;17.92;10.68;;;;;;;16.63;26.04;99579.63;5141526;28;20117;-96
2022/03/27 08:48:31;;;;;;;17.92;10.18;;;;;;;16.74;24.19;99590.84;5135357;28;20086;-95
2022/03/27 08:51:05;;;;;;;15.55;8.95;;;;;;;16.73;23.43;99582.84;5133372;28;20039;-94
2022/03/27 08:53:37;;;;;;;14.70;9.57;;;;;;;16.86;23.29;99597.56;5134006;28;20099;-95
2022/03/27 08:56:06;;;;;;;15.50;9.18;;;;;;;16.85;23.56;99598.50;5132935;28;20416;-93
2022/03/27 08:58:35;;;;;;;14.32;9.40;;;;;;;16.77;23.09;99600.59;5127790;28;20070;-91
2022/03/27 09:01:04;;;;;;;15.35;9.32;;;;;;;16.71;23.30;99572.13;5132396;28;20043;-92
2022/03/27 09:03:30;;;;;;;;;;;;;;;16.93;23.89;99603.56;5121771;28;20071;-94
2022/03/27 09:05:56;;;;;;;16.40;9.65;;;;;;;16.76;23.15;99578.22;5126817;28;19920;-92
2022/03/27 09:08:22;;;;;;;24.67;14.48;;;;;;;16.89;28.35;99596.56;5132603;28;20127;-93
2022/03/27 09:10:48;;;;;;;23.35;13.65;;;;;;;16.77;26.91;99588.03;5132245;28;20043;-93
2022/03/27 09:13:16;;;;;;;19.40;12.90;;;;;;;16.73;28.24;99597.13;5132281;28;20585;-93
2022/03/27 09:15:43;;;;;;;39.10;21.50;;;;;;;16.64;32.92;99586.75;5133835;28;20047;-93
2022/03/27 09:18:11;;;;;;;36.72;20.80;;;;;;;16.66;34.36;99598.31;5113116;28;20054;-92
2022/03/27 09:20:40;;;;;;;15.77;10.52;;;;;;;16.51;26.07;99575.59;5115246;28;20043;-94
2022/03/27 09:23:18;;;;;;;14.77;9.30;;;;;;;16.84;25.00;99602.13;5127663;28;20035;-93
2022/03/27 09:25:48;;;;;;;16.35;9.13;;;;;;;16.87;22.83;99572.44;5131349;28;20032;-93
2022/03/27 09:28:25;;;;;;;15.73;9.25;;;;;;;16.93;23.20;99572.19;5131024;28;20053;-92
2022/03/27 09:30:51;;;;;;;13.25;9.00;;;;;;;17.13;24.12;99589.31;5131491;28;20048;-93
2022/03/27 09:33:36;;;;;;;13.60;9.23;;;;;;;17.12;23.46;99587.59;5131535;28;20074;-93
2022/03/27 09:36:10;;;;;;;15.45;9.77;;;;;;;17.03;22.95;99578.94;5112045;28;20123;-93
2022/03/27 09:38:38;;;;;;;16.08;10.23;;;;;;;17.37;22.86;99590.13;5106146;28;20106;-94
2022/03/27 09:41:05;;;;;;;15.70;10.05;;;;;;;17.47;21.58;99588.78;5097155;28;20040;-91
2022/03/27 09:43:30;;;;;;;17.25;10.80;;;;;;;17.14;24.25;99580.34;5103280;28;20116;-93
2022/03/27 09:45:58;;;;;;;18.67;11.20;;;;;;;17.19;23.07;99564.88;5117388;28;20071;-93
2022/03/27 09:48:24;;;;;;;15.95;10.18;;;;;;;17.34;22.21;99585.75;5114314;28;20032;-93
2022/03/27 09:50:53;;;;;;;17.48;9.98;;;;;;;17.45;22.77;99586.16;5096813;28;20505;-93
2022/03/27 09:53:25;;;;;;;13.88;9.75;;;;;;;17.45;22.16;99569.16;5102677;28;20482;-93
2022/03/27 09:56:10;;;;;;;15.82;10.20;;;;;;;17.50;21.48;99563.59;5097351;28;20055;-93
2022/03/27 09:58:38;;;;;;;16.15;10.20;;;;;;;17.64;21.32;99580.00;5105807;28;20503;-94
2022/03/27 10:01:08;;;;;;;17.77;10.63;;;;;;;17.84;21.62;99582.72;5108288;28;20042;-92
2022/03/27 10:03:34;;;;;;;15.07;9.85;;;;;;;17.84;21.74;99571.09;5096762;28;20066;-93
2022/03/27 10:06:26;;;;;;;16.83;10.50;;;;;;;17.93;22.13;99573.38;5114256;28;20100;-93
2022/03/27 10:08:53;;;;;;;16.52;10.85;;;;;;;18.09;21.77;99570.91;5110967;28;20048;-93
2022/03/27 10:11:21;;;;;;;28.27;11.20;;;;;;;18.16;21.78;99582.25;5097183;28;20156;-94
2022/03/27 10:13:52;;;;;;;18.10;11.10;;;;;;;18.47;21.82;99576.34;5096519;28;20127;-95
2022/03/27 10:16:23;;;;;;;16.00;9.70;;;;;;;18.50;20.13;99551.06;5113738;28;20092;-93
2022/03/27 10:18:53;;;;;;;15.68;10.18;;;;;;;18.55;20.33;99549.91;5117205;28;20035;-91
2022/03/27 10:21:23;;;;;;;18.10;10.68;;;;;;;18.33;21.33;99560.81;5116061;28;20051;-92
2022/03/27 10:23:55;;;;;;;15.93;10.35;;;;;;;18.82;21.62;99565.72;5104047;28;20071;-93
2022/03/27 10:26:21;;;;;;;15.75;11.00;;;;;;;18.82;20.41;99563.03;5105078;28;20043;-92
2022/03/27 10:28:49;;;;;;;16.50;10.52;;;;;;;19.16;19.36;99547.91;5096125;28;20528;-93
2022/03/27 10:31:17;;;;;;;15.95;10.55;;;;;;;19.31;19.43;99554.38;5096339;28;20048;-93
2022/03/27 10:33:43;;;;;;;18.13;10.55;;;;;;;19.43;19.62;99543.84;5097266;28;20099;-93
2022/03/27 10:36:14;;;;;;;16.40;10.63;;;;;;;19.18;19.48;99551.41;5097845;28;20093;-95
2022/03/27 10:38:55;;;;;;;15.10;9.90;;;;;;;19.23;17.44;99533.16;5097385;28;20044;-93
2022/03/27 10:41:29;;;;;;;15.23;10.38;;;;;;;19.55;18.04;99542.31;5097568;28;20036;-93
2022/03/27 10:44:03;;;;;;;14.70;10.02;;;;;;;19.66;17.45;99553.41;5115503;28;20050;-95
2022/03/27 10:46:31;;;;;;;22.30;15.65;;;;;;;19.95;17.50;99547.47;5109583;28;20044;-95
2022/03/27 10:49:11;;;;;;;16.77;10.63;;;;;;;20.14;17.09;99529.34;5097869;28;20044;-94
2022/03/27 10:51:39;;;;;;;18.45;11.13;;;;;;;20.22;18.00;99531.63;5096941;28;20044;-95
2022/03/27 10:54:10;;;;;;;16.38;10.43;;;;;;;19.79;15.79;99531.25;5110644;28;20388;-92
2022/03/27 10:56:40;;;;;;;13.85;9.07;;;;;;;19.71;16.25;99523.53;5097538;28;20501;-94
2022/03/27 10:59:24;;;;;;;15.85;9.85;;;;;;;19.85;16.97;99539.88;5102857;28;20081;-93
2022/03/27 11:01:52;;;;;;;18.58;11.55;;;;;;;20.01;16.75;99521.03;5100797;28;20500;-94
2022/03/27 11:04:19;;;;;;;16.77;10.13;;;;;;;20.06;16.23;99534.28;5100741;28;20140;-94
2022/03/27 11:06:46;;;;;;;15.85;9.73;;;;;;;20.10;16.90;99519.66;5113463;28;20059;-94
2022/03/27 11:09:31;;;;;;;14.68;10.00;;;;;;;19.61;16.25;99512.31;5115834;28;20047;-95
2022/03/27 11:11:57;;;;;;;15.00;10.45;;;;;;;19.87;17.30;99535.28;5116663;28;20493;-93
2022/03/27 11:14:40;;;;;;;15.50;10.25;;;;;;;19.82;16.09;99504.06;5115933;28;20043;-93
2022/03/27 11:17:11;;;;;;;16.50;10.75;;;;;;;19.97;16.81;99513.19;5102854;28;20040;-94
2022/03/27 11:19:42;;;;;;;14.40;10.32;;;;;;;19.94;16.09;99502.56;5116156;28;20040;-93
2022/03/27 11:22:43;;;;;;;14.10;10.50;;;;;;;19.73;16.05;99527.03;5115998;28;20050;-94
2022/03/27 11:25:31;;;;;;;15.23;10.75;;;;;;;19.96;16.21;99511.44;5116389;28;20059;-95
2022/03/27 11:28:06;;;;;;;15.93;10.35;;;;;;;20.03;16.13;99510.16;5115789;28;20089;-92
2022/03/27 11:30:34;;;;;;;16.35;9.93;;;;;;;19.90;17.34;99493.75;5118462;28;20374;-94
2022/03/27 11:33:18;;;;;;;16.38;10.82;;;;;;;20.27;16.59;99506.09;5105619;28;20535;-95
2022/03/27 11:36:16;;;;;;;16.25;11.18;;;;;;;20.28;16.58;99488.97;5095514;28;20040;-94
2022/03/27 11:38:54;;;;;;;16.73;10.67;;;;;;;20.34;16.88;99487.72;5077953;28;20055;-94
2022/03/27 11:41:26;;;;;;;17.63;10.93;;;;;;;19.74;17.02;99482.03;5096487;28;20277;-94
2022/03/27 11:43:53;;;;;;;15.48;10.63;;;;;;;20.10;16.93;99492.66;5115897;28;20131;-94
2022/03/27 11:46:23;;;;;;;15.38;10.65;;;;;;;19.66;16.64;99493.19;5117284;28;20088;-95
2022/03/27 11:48:53;;;;;;;15.00;10.25;;;;;;;19.58;17.62;99500.81;5116659;28;20040;-93